Pisa International Airport

Airport
ICAO code: 
LIRP
IATA Code: 
PSA
Summary
ICAO Region: 
EUR
Territory: 
Location: 
San Giusto, Tuscany
Serving: 
Pisa
Elevation: 
6 ft
Coordinates: 
Aerial View: 
43° 41' 4.521" N, 10° 23' 42.249" E
Metar
Observation
LIRP 070245Z 12004KT CAVOK M00/M01 Q1011 NOSIG
Station
Pisa / S. Giusto
Date/Time
2021-12-07 02:45:00
Wind direction
120°
Wind speed
04 kts
Lowest cloud amount
clouds and visibility OK
Temperature
-0°C
Dew point
-1°C
Humidity
92%
QNH
1011 hPa
Weather condition
n/a

Galileo Galilei Airport is an airport located in Pisa, Italy. It is one of the two main airports in Tuscany, together with Peretola Airport in Florence. It is also known as Pisa-San Giusto Airport for its location in the San Giusto district, 1 km from the Pisa city centre.

Climatology

Humid “subtropical” climate (Köppen climate classification Cfa) - characterized by hot, humid summers and cool winters. Significant amounts of precipitation occur in all seasons in most areas. Winter rainfall (and sometimes snowfall) is associated with large storms that the westerlies steer from west to east. Most summer rainfall occurs during thunderstorms.

Runways

Designator Length Width Surface Rops
04L/22R 2792 43 ASP Yes/Yes
04R/22L 2993 45 ASP Yes/Yes
Airport map: 
Aerial View: 

SKYbrary Partners:

Safety knowledge contributed by: